sensor_id;sensor_type;location;lat;lon;timestamp;P1;durP1;ratioP1;P2;durP2;ratioP2
60472;SDS011;46318;52.716;6.444;2022-09-13T00:00:50;15.05;;;13.60;;
60472;SDS011;46318;52.716;6.444;2022-09-13T00:03:18;16.35;;;14.32;;
60472;SDS011;46318;52.716;6.444;2022-09-13T00:05:44;13.68;;;12.38;;
60472;SDS011;46318;52.716;6.444;2022-09-13T00:08:11;13.15;;;11.85;;
60472;SDS011;46318;52.716;6.444;2022-09-13T00:10:37;13.32;;;11.88;;
60472;SDS011;46318;52.716;6.444;2022-09-13T00:13:06;12.25;;;10.98;;
60472;SDS011;46318;52.716;6.444;2022-09-13T00:15:34;12.13;;;10.82;;
60472;SDS011;46318;52.716;6.444;2022-09-13T00:18:00;11.13;;;10.05;;
60472;SDS011;46318;52.716;6.444;2022-09-13T00:20:26;12.18;;;11.07;;
60472;SDS011;46318;52.716;6.444;2022-09-13T00:22:52;11.52;;;10.43;;
60472;SDS011;46318;52.716;6.444;2022-09-13T00:25:18;11.40;;;10.27;;
60472;SDS011;46318;52.716;6.444;2022-09-13T00:27:45;11.30;;;10.18;;
60472;SDS011;46318;52.716;6.444;2022-09-13T00:30:11;12.48;;;11.25;;
60472;SDS011;46318;52.716;6.444;2022-09-13T00:32:37;12.20;;;10.63;;
60472;SDS011;46318;52.716;6.444;2022-09-13T00:35:04;12.43;;;11.23;;
60472;SDS011;46318;52.716;6.444;2022-09-13T00:37:31;12.52;;;11.25;;
60472;SDS011;46318;52.716;6.444;2022-09-13T00:39:58;14.15;;;12.65;;
60472;SDS011;46318;52.716;6.444;2022-09-13T00:42:25;13.00;;;11.70;;
60472;SDS011;46318;52.716;6.444;2022-09-13T00:45:00;14.40;;;12.98;;
60472;SDS011;46318;52.716;6.444;2022-09-13T00:50:15;14.18;;;12.68;;
60472;SDS011;46318;52.716;6.444;2022-09-13T00:52:59;13.18;;;11.93;;
60472;SDS011;46318;52.716;6.444;2022-09-13T00:55:34;13.85;;;12.45;;
60472;SDS011;46318;52.716;6.444;2022-09-13T00:58:16;14.10;;;12.77;;
60472;SDS011;46318;52.716;6.444;2022-09-13T01:01:12;13.77;;;12.13;;
60472;SDS011;46318;52.716;6.444;2022-09-13T01:03:40;14.20;;;12.85;;
60472;SDS011;46318;52.716;6.444;2022-09-13T01:06:10;16.60;;;14.90;;
60472;SDS011;46318;52.716;6.444;2022-09-13T01:08:42;16.20;;;14.60;;
60472;SDS011;46318;52.716;6.444;2022-09-13T01:11:15;17.02;;;15.32;;
60472;SDS011;46318;52.716;6.444;2022-09-13T01:13:49;17.88;;;16.05;;
60472;SDS011;46318;52.716;6.444;2022-09-13T01:16:16;16.55;;;14.80;;
60472;SDS011;46318;52.716;6.444;2022-09-13T01:18:42;15.50;;;14.02;;
60472;SDS011;46318;52.716;6.444;2022-09-13T01:27:51;18.15;;;16.25;;
60472;SDS011;46318;52.716;6.444;2022-09-13T01:30:23;18.40;;;16.70;;
60472;SDS011;46318;52.716;6.444;2022-09-13T01:33:21;20.27;;;17.55;;
60472;SDS011;46318;52.716;6.444;2022-09-13T01:39:08;20.48;;;17.65;;
60472;SDS011;46318;52.716;6.444;2022-09-13T01:56:13;20.20;;;18.25;;
60472;SDS011;46318;52.716;6.444;2022-09-13T01:58:54;20.73;;;18.65;;
60472;SDS011;46318;52.716;6.444;2022-09-13T02:01:36;20.48;;;18.42;;
60472;SDS011;46318;52.716;6.444;2022-09-13T02:04:16;22.77;;;20.48;;
60472;SDS011;46318;52.716;6.444;2022-09-13T02:07:08;22.42;;;20.13;;
60472;SDS011;46318;52.716;6.444;2022-09-13T02:09:43;20.55;;;18.45;;
60472;SDS011;46318;52.716;6.444;2022-09-13T02:12:24;21.83;;;19.58;;
60472;SDS011;46318;52.716;6.444;2022-09-13T02:15:06;22.13;;;19.83;;
60472;SDS011;46318;52.716;6.444;2022-09-13T02:17:36;21.73;;;19.52;;
60472;SDS011;46318;52.716;6.444;2022-09-13T02:20:15;21.13;;;19.02;;
60472;SDS011;46318;52.716;6.444;2022-09-13T02:23:02;24.02;;;21.55;;
60472;SDS011;46318;52.716;6.444;2022-09-13T02:25:36;23.05;;;20.55;;
60472;SDS011;46318;52.716;6.444;2022-09-13T02:28:05;22.33;;;19.85;;
60472;SDS011;46318;52.716;6.444;2022-09-13T02:30:36;24.35;;;20.38;;
60472;SDS011;46318;52.716;6.444;2022-09-13T02:33:11;24.00;;;21.58;;
60472;SDS011;46318;52.716;6.444;2022-09-13T02:35:59;26.17;;;21.98;;
60472;SDS011;46318;52.716;6.444;2022-09-13T02:38:42;22.80;;;20.48;;
60472;SDS011;46318;52.716;6.444;2022-09-13T02:41:37;23.92;;;21.25;;
60472;SDS011;46318;52.716;6.444;2022-09-13T02:44:12;22.67;;;20.35;;
60472;SDS011;46318;52.716;6.444;2022-09-13T02:49:55;22.20;;;19.92;;
60472;SDS011;46318;52.716;6.444;2022-09-13T02:52:48;22.23;;;19.88;;
60472;SDS011;46318;52.716;6.444;2022-09-13T02:58:23;23.80;;;21.40;;
60472;SDS011;46318;52.716;6.444;2022-09-13T03:01:01;25.00;;;22.35;;
60472;SDS011;46318;52.716;6.444;2022-09-13T03:03:27;24.42;;;21.90;;
60472;SDS011;46318;52.716;6.444;2022-09-13T03:05:53;23.00;;;20.60;;
60472;SDS011;46318;52.716;6.444;2022-09-13T03:08:19;24.58;;;21.95;;
60472;SDS011;46318;52.716;6.444;2022-09-13T03:27:44;24.17;;;21.25;;
60472;SDS011;46318;52.716;6.444;2022-09-13T03:30:28;25.23;;;22.40;;
60472;SDS011;46318;52.716;6.444;2022-09-13T03:33:03;24.13;;;21.53;;
60472;SDS011;46318;52.716;6.444;2022-09-13T03:35:38;25.20;;;22.50;;
60472;SDS011;46318;52.716;6.444;2022-09-13T03:38:11;25.83;;;23.08;;
60472;SDS011;46318;52.716;6.444;2022-09-13T03:41:15;27.02;;;24.15;;
60472;SDS011;46318;52.716;6.444;2022-09-13T03:43:49;27.05;;;24.05;;
60472;SDS011;46318;52.716;6.444;2022-09-13T03:46:30;25.50;;;22.35;;
60472;SDS011;46318;52.716;6.444;2022-09-13T03:49:03;27.58;;;23.98;;
60472;SDS011;46318;52.716;6.444;2022-09-13T03:51:42;24.58;;;21.60;;
60472;SDS011;46318;52.716;6.444;2022-09-13T03:54:15;26.67;;;23.75;;
60472;SDS011;46318;52.716;6.444;2022-09-13T03:59:52;26.35;;;23.70;;
60472;SDS011;46318;52.716;6.444;2022-09-13T04:02:21;27.90;;;24.33;;
60472;SDS011;46318;52.716;6.444;2022-09-13T04:04:49;23.75;;;21.30;;
60472;SDS011;46318;52.716;6.444;2022-09-13T04:07:20;26.95;;;24.13;;
60472;SDS011;46318;52.716;6.444;2022-09-13T04:09:48;30.05;;;24.20;;
60472;SDS011;46318;52.716;6.444;2022-09-13T04:12:14;26.55;;;23.00;;
60472;SDS011;46318;52.716;6.444;2022-09-13T04:14:41;29.83;;;25.45;;
60472;SDS011;46318;52.716;6.444;2022-09-13T04:17:08;28.13;;;25.05;;
60472;SDS011;46318;52.716;6.444;2022-09-13T04:19:34;28.63;;;23.75;;
60472;SDS011;46318;52.716;6.444;2022-09-13T04:22:00;27.70;;;24.80;;
60472;SDS011;46318;52.716;6.444;2022-09-13T04:24:27;27.27;;;24.20;;
60472;SDS011;46318;52.716;6.444;2022-09-13T04:26:55;29.60;;;26.02;;
60472;SDS011;46318;52.716;6.444;2022-09-13T04:29:21;27.38;;;24.20;;
60472;SDS011;46318;52.716;6.444;2022-09-13T04:31:49;28.17;;;25.15;;
60472;SDS011;46318;52.716;6.444;2022-09-13T04:34:18;28.02;;;25.23;;
60472;SDS011;46318;52.716;6.444;2022-09-13T04:36:46;27.70;;;24.90;;
60472;SDS011;46318;52.716;6.444;2022-09-13T04:39:13;28.50;;;25.50;;
60472;SDS011;46318;52.716;6.444;2022-09-13T04:41:39;28.90;;;25.83;;
60472;SDS011;46318;52.716;6.444;2022-09-13T04:44:08;30.13;;;27.02;;
60472;SDS011;46318;52.716;6.444;2022-09-13T04:46:34;31.35;;;27.45;;
60472;SDS011;46318;52.716;6.444;2022-09-13T04:49:00;31.60;;;27.30;;
60472;SDS011;46318;52.716;6.444;2022-09-13T04:51:26;28.67;;;25.80;;
60472;SDS011;46318;52.716;6.444;2022-09-13T04:53:52;29.15;;;26.17;;
60472;SDS011;46318;52.716;6.444;2022-09-13T04:56:19;28.42;;;25.30;;
60472;SDS011;46318;52.716;6.444;2022-09-13T04:58:47;31.42;;;27.38;;
60472;SDS011;46318;52.716;6.444;2022-09-13T05:01:17;31.92;;;28.55;;
60472;SDS011;46318;52.716;6.444;2022-09-13T05:03:43;30.17;;;26.88;;
60472;SDS011;46318;52.716;6.444;2022-09-13T05:06:10;29.13;;;25.88;;
60472;SDS011;46318;52.716;6.444;2022-09-13T05:08:41;30.35;;;26.85;;
60472;SDS011;46318;52.716;6.444;2022-09-13T05:11:08;28.77;;;25.77;;
60472;SDS011;46318;52.716;6.444;2022-09-13T05:13:34;31.02;;;26.52;;
60472;SDS011;46318;52.716;6.444;2022-09-13T05:16:01;31.25;;;26.52;;
60472;SDS011;46318;52.716;6.444;2022-09-13T05:18:31;31.20;;;27.80;;
60472;SDS011;46318;52.716;6.444;2022-09-13T05:21:00;28.83;;;25.73;;
60472;SDS011;46318;52.716;6.444;2022-09-13T05:23:29;27.70;;;24.80;;
60472;SDS011;46318;52.716;6.444;2022-09-13T05:25:56;32.80;;;24.67;;
60472;SDS011;46318;52.716;6.444;2022-09-13T05:28:26;26.55;;;23.67;;
60472;SDS011;46318;52.716;6.444;2022-09-13T05:31:00;23.98;;;21.48;;
60472;SDS011;46318;52.716;6.444;2022-09-13T05:33:37;25.48;;;22.67;;
60472;SDS011;46318;52.716;6.444;2022-09-13T05:36:04;23.20;;;20.80;;
60472;SDS011;46318;52.716;6.444;2022-09-13T05:38:30;22.55;;;20.17;;
60472;SDS011;46318;52.716;6.444;2022-09-13T05:40:58;19.98;;;17.90;;
60472;SDS011;46318;52.716;6.444;2022-09-13T05:43:27;20.50;;;18.25;;
60472;SDS011;46318;52.716;6.444;2022-09-13T05:46:08;19.42;;;17.50;;
60472;SDS011;46318;52.716;6.444;2022-09-13T05:48:36;21.33;;;16.40;;
60472;SDS011;46318;52.716;6.444;2022-09-13T05:51:04;16.65;;;15.05;;
60472;SDS011;46318;52.716;6.444;2022-09-13T05:53:34;17.88;;;15.32;;
60472;SDS011;46318;52.716;6.444;2022-09-13T05:56:08;14.77;;;13.27;;
60472;SDS011;46318;52.716;6.444;2022-09-13T05:58:38;13.63;;;12.32;;
60472;SDS011;46318;52.716;6.444;2022-09-13T06:01:07;12.32;;;11.02;;
60472;SDS011;46318;52.716;6.444;2022-09-13T06:03:33;12.75;;;11.05;;
60472;SDS011;46318;52.716;6.444;2022-09-13T06:06:00;12.23;;;10.38;;
60472;SDS011;46318;52.716;6.444;2022-09-13T06:08:27;10.52;;;9.38;;
60472;SDS011;46318;52.716;6.444;2022-09-13T06:10:58;11.02;;;9.23;;
60472;SDS011;46318;52.716;6.444;2022-09-13T06:13:30;9.60;;;8.70;;
60472;SDS011;46318;52.716;6.444;2022-09-13T06:15:57;9.57;;;8.57;;
60472;SDS011;46318;52.716;6.444;2022-09-13T06:18:24;9.55;;;8.07;;
60472;SDS011;46318;52.716;6.444;2022-09-13T06:20:56;9.80;;;7.30;;
60472;SDS011;46318;52.716;6.444;2022-09-13T06:23:24;9.07;;;7.07;;
60472;SDS011;46318;52.716;6.444;2022-09-13T06:25:58;7.32;;;6.63;;
60472;SDS011;46318;52.716;6.444;2022-09-13T06:28:28;8.85;;;6.35;;
60472;SDS011;46318;52.716;6.444;2022-09-13T06:31:13;6.32;;;5.72;;
60472;SDS011;46318;52.716;6.444;2022-09-13T06:33:41;6.35;;;4.93;;
60472;SDS011;46318;52.716;6.444;2022-09-13T06:36:08;6.07;;;4.68;;
60472;SDS011;46318;52.716;6.444;2022-09-13T06:38:44;5.43;;;4.80;;
60472;SDS011;46318;52.716;6.444;2022-09-13T06:41:11;4.85;;;3.88;;
60472;SDS011;46318;52.716;6.444;2022-09-13T06:43:40;6.43;;;4.32;;
60472;SDS011;46318;52.716;6.444;2022-09-13T06:46:16;7.13;;;3.72;;
60472;SDS011;46318;52.716;6.444;2022-09-13T06:48:44;4.90;;;3.35;;
60472;SDS011;46318;52.716;6.444;2022-09-13T06:51:11;5.55;;;3.45;;
60472;SDS011;46318;52.716;6.444;2022-09-13T06:53:40;4.72;;;3.35;;
60472;SDS011;46318;52.716;6.444;2022-09-13T06:56:18;4.65;;;3.60;;
60472;SDS011;46318;52.716;6.444;2022-09-13T06:58:56;4.38;;;3.28;;
60472;SDS011;46318;52.716;6.444;2022-09-13T07:01:27;4.47;;;2.75;;
60472;SDS011;46318;52.716;6.444;2022-09-13T07:04:05;6.13;;;2.92;;
60472;SDS011;46318;52.716;6.444;2022-09-13T07:06:35;4.78;;;2.60;;
60472;SDS011;46318;52.716;6.444;2022-09-13T07:09:11;6.88;;;2.13;;
60472;SDS011;46318;52.716;6.444;2022-09-13T07:11:45;2.40;;;1.92;;
60472;SDS011;46318;52.716;6.444;2022-09-13T07:14:17;4.63;;;2.05;;
60472;SDS011;46318;52.716;6.444;2022-09-13T07:16:46;4.57;;;2.20;;
60472;SDS011;46318;52.716;6.444;2022-09-13T07:19:14;4.22;;;2.47;;
60472;SDS011;46318;52.716;6.444;2022-09-13T07:21:44;4.77;;;2.70;;
60472;SDS011;46318;52.716;6.444;2022-09-13T07:24:09;3.20;;;2.50;;
60472;SDS011;46318;52.716;6.444;2022-09-13T07:26:36;2.70;;;2.40;;
60472;SDS011;46318;52.716;6.444;2022-09-13T07:29:05;4.68;;;3.17;;
60472;SDS011;46318;52.716;6.444;2022-09-13T07:31:35;3.45;;;2.40;;
60472;SDS011;46318;52.716;6.444;2022-09-13T07:34:09;5.63;;;2.60;;
60472;SDS011;46318;52.716;6.444;2022-09-13T07:36:38;3.55;;;2.67;;
60472;SDS011;46318;52.716;6.444;2022-09-13T07:39:04;7.70;;;2.72;;
60472;SDS011;46318;52.716;6.444;2022-09-13T07:41:31;3.95;;;2.95;;
60472;SDS011;46318;52.716;6.444;2022-09-13T07:43:58;4.60;;;2.78;;
60472;SDS011;46318;52.716;6.444;2022-09-13T07:46:26;4.57;;;2.80;;
60472;SDS011;46318;52.716;6.444;2022-09-13T07:48:58;5.25;;;2.88;;
60472;SDS011;46318;52.716;6.444;2022-09-13T07:51:27;8.00;;;3.20;;
60472;SDS011;46318;52.716;6.444;2022-09-13T07:53:56;4.55;;;3.00;;
60472;SDS011;46318;52.716;6.444;2022-09-13T07:56:25;6.88;;;2.95;;
60472;SDS011;46318;52.716;6.444;2022-09-13T07:58:58;5.90;;;3.17;;
60472;SDS011;46318;52.716;6.444;2022-09-13T08:01:29;4.38;;;3.20;;
60472;SDS011;46318;52.716;6.444;2022-09-13T08:04:03;5.68;;;3.28;;
60472;SDS011;46318;52.716;6.444;2022-09-13T08:06:34;3.85;;;2.75;;
60472;SDS011;46318;52.716;6.444;2022-09-13T08:09:02;7.22;;;3.58;;
60472;SDS011;46318;52.716;6.444;2022-09-13T08:11:31;4.63;;;3.05;;
60472;SDS011;46318;52.716;6.444;2022-09-13T08:14:00;6.50;;;3.95;;
60472;SDS011;46318;52.716;6.444;2022-09-13T08:16:28;7.70;;;3.50;;
60472;SDS011;46318;52.716;6.444;2022-09-13T08:18:55;6.70;;;3.63;;
60472;SDS011;46318;52.716;6.444;2022-09-13T08:21:26;6.05;;;3.40;;
60472;SDS011;46318;52.716;6.444;2022-09-13T08:23:58;6.78;;;3.17;;
60472;SDS011;46318;52.716;6.444;2022-09-13T08:26:25;6.72;;;2.88;;
60472;SDS011;46318;52.716;6.444;2022-09-13T08:28:56;4.47;;;2.73;;
60472;SDS011;46318;52.716;6.444;2022-09-13T08:31:24;6.78;;;2.95;;
60472;SDS011;46318;52.716;6.444;2022-09-13T08:33:51;8.30;;;2.70;;
60472;SDS011;46318;52.716;6.444;2022-09-13T08:36:17;7.93;;;2.80;;
60472;SDS011;46318;52.716;6.444;2022-09-13T08:38:47;5.18;;;2.10;;
60472;SDS011;46318;52.716;6.444;2022-09-13T08:43:52;4.22;;;1.92;;
60472;SDS011;46318;52.716;6.444;2022-09-13T08:47:37;3.92;;;1.77;;
60472;SDS011;46318;52.716;6.444;2022-09-13T08:52:17;4.15;;;1.80;;
60472;SDS011;46318;52.716;6.444;2022-09-13T08:55:24;3.33;;;1.67;;
60472;SDS011;46318;52.716;6.444;2022-09-13T09:07:04;3.33;;;1.63;;
60472;SDS011;46318;52.716;6.444;2022-09-13T09:09:45;4.70;;;1.77;;
60472;SDS011;46318;52.716;6.444;2022-09-13T09:14:54;5.13;;;1.77;;
60472;SDS011;46318;52.716;6.444;2022-09-13T09:17:41;4.85;;;1.60;;
60472;SDS011;46318;52.716;6.444;2022-09-13T09:20:15;6.00;;;1.63;;
60472;SDS011;46318;52.716;6.444;2022-09-13T09:22:50;6.35;;;1.55;;
60472;SDS011;46318;52.716;6.444;2022-09-13T09:25:19;3.33;;;1.40;;
60472;SDS011;46318;52.716;6.444;2022-09-13T09:27:48;5.32;;;1.45;;
60472;SDS011;46318;52.716;6.444;2022-09-13T09:30:16;4.45;;;1.67;;
60472;SDS011;46318;52.716;6.444;2022-09-13T09:35:50;5.50;;;1.35;;
60472;SDS011;46318;52.716;6.444;2022-09-13T09:38:41;4.03;;;1.20;;
60472;SDS011;46318;52.716;6.444;2022-09-13T09:41:12;3.17;;;1.10;;
60472;SDS011;46318;52.716;6.444;2022-09-13T09:44:00;4.72;;;1.10;;
60472;SDS011;46318;52.716;6.444;2022-09-13T09:46:29;2.75;;;1.55;;
60472;SDS011;46318;52.716;6.444;2022-09-13T09:49:16;3.38;;;1.40;;
60472;SDS011;46318;52.716;6.444;2022-09-13T09:58:37;2.83;;;1.20;;
60472;SDS011;46318;52.716;6.444;2022-09-13T10:01:13;3.85;;;1.10;;
60472;SDS011;46318;52.716;6.444;2022-09-13T10:03:48;2.90;;;1.08;;
60472;SDS011;46318;52.716;6.444;2022-09-13T10:06:44;1.95;;;1.13;;
60472;SDS011;46318;52.716;6.444;2022-09-13T10:09:18;2.17;;;0.95;;
60472;SDS011;46318;52.716;6.444;2022-09-13T10:14:27;2.83;;;0.98;;
60472;SDS011;46318;52.716;6.444;2022-09-13T10:19:50;4.18;;;1.23;;
60472;SDS011;46318;52.716;6.444;2022-09-13T10:22:25;2.47;;;1.05;;
60472;SDS011;46318;52.716;6.444;2022-09-13T10:24:53;0.90;;;0.70;;
60472;SDS011;46318;52.716;6.444;2022-09-13T10:27:21;2.53;;;0.73;;
60472;SDS011;46318;52.716;6.444;2022-09-13T10:30:03;2.13;;;0.85;;
60472;SDS011;46318;52.716;6.444;2022-09-13T10:32:31;3.35;;;1.00;;
60472;SDS011;46318;52.716;6.444;2022-09-13T10:35:05;3.80;;;0.85;;
60472;SDS011;46318;52.716;6.444;2022-09-13T10:37:40;2.92;;;0.70;;
60472;SDS011;46318;52.716;6.444;2022-09-13T10:40:12;1.10;;;0.63;;
60472;SDS011;46318;52.716;6.444;2022-09-13T10:42:50;1.50;;;0.80;;
60472;SDS011;46318;52.716;6.444;2022-09-13T10:45:21;6.47;;;1.40;;
60472;SDS011;46318;52.716;6.444;2022-09-13T10:47:50;3.58;;;0.90;;
60472;SDS011;46318;52.716;6.444;2022-09-13T10:50:22;2.58;;;0.82;;
60472;SDS011;46318;52.716;6.444;2022-09-13T10:52:50;3.28;;;0.98;;
60472;SDS011;46318;52.716;6.444;2022-09-13T10:57:44;5.15;;;1.52;;
60472;SDS011;46318;52.716;6.444;2022-09-13T11:06:26;2.35;;;0.80;;
60472;SDS011;46318;52.716;6.444;2022-09-13T11:09:11;3.03;;;0.82;;
60472;SDS011;46318;52.716;6.444;2022-09-13T11:11:51;2.30;;;0.60;;
60472;SDS011;46318;52.716;6.444;2022-09-13T11:14:43;1.42;;;0.60;;
60472;SDS011;46318;52.716;6.444;2022-09-13T11:26:28;1.85;;;0.90;;
60472;SDS011;46318;52.716;6.444;2022-09-13T11:29:17;2.13;;;0.77;;
60472;SDS011;46318;52.716;6.444;2022-09-13T11:32:35;1.85;;;1.00;;
60472;SDS011;46318;52.716;6.444;2022-09-13T11:35:45;3.10;;;0.80;;
60472;SDS011;46318;52.716;6.444;2022-09-13T11:50:58;0.82;;;0.50;;
60472;SDS011;46318;52.716;6.444;2022-09-13T11:53:46;2.65;;;0.65;;
60472;SDS011;46318;52.716;6.444;2022-09-13T11:56:22;3.13;;;0.70;;
60472;SDS011;46318;52.716;6.444;2022-09-13T12:02:17;5.45;;;1.08;;
60472;SDS011;46318;52.716;6.444;2022-09-13T12:08:03;3.47;;;0.70;;
60472;SDS011;46318;52.716;6.444;2022-09-13T12:13:29;1.80;;;0.68;;
60472;SDS011;46318;52.716;6.444;2022-09-13T12:16:01;1.80;;;0.50;;
60472;SDS011;46318;52.716;6.444;2022-09-13T12:18:43;1.98;;;0.63;;
60472;SDS011;46318;52.716;6.444;2022-09-13T12:21:19;3.90;;;0.90;;
60472;SDS011;46318;52.716;6.444;2022-09-13T12:23:52;3.85;;;0.57;;
60472;SDS011;46318;52.716;6.444;2022-09-13T12:29:14;4.32;;;0.85;;
60472;SDS011;46318;52.716;6.444;2022-09-13T12:31:50;3.72;;;1.02;;
60472;SDS011;46318;52.716;6.444;2022-09-13T12:34:22;5.33;;;1.00;;
60472;SDS011;46318;52.716;6.444;2022-09-13T12:49:42;3.33;;;1.00;;
60472;SDS011;46318;52.716;6.444;2022-09-13T12:52:42;4.22;;;0.98;;
60472;SDS011;46318;52.716;6.444;2022-09-13T13:01:59;3.28;;;0.90;;
60472;SDS011;46318;52.716;6.444;2022-09-13T13:04:43;2.72;;;0.85;;
60472;SDS011;46318;52.716;6.444;2022-09-13T13:07:20;4.32;;;0.90;;
60472;SDS011;46318;52.716;6.444;2022-09-13T13:09:48;1.42;;;0.90;;
60472;SDS011;46318;52.716;6.444;2022-09-13T13:12:36;3.78;;;0.90;;
60472;SDS011;46318;52.716;6.444;2022-09-13T13:17:53;2.88;;;0.88;;
60472;SDS011;46318;52.716;6.444;2022-09-13T13:23:26;3.72;;;0.80;;
60472;SDS011;46318;52.716;6.444;2022-09-13T13:39:04;2.80;;;0.65;;
60472;SDS011;46318;52.716;6.444;2022-09-13T13:46:53;2.85;;;0.70;;
60472;SDS011;46318;52.716;6.444;2022-09-13T14:00:12;2.45;;;0.80;;
60472;SDS011;46318;52.716;6.444;2022-09-13T14:05:23;1.88;;;0.73;;
60472;SDS011;46318;52.716;6.444;2022-09-13T14:08:21;4.65;;;0.80;;
60472;SDS011;46318;52.716;6.444;2022-09-13T14:16:55;0.68;;;0.50;;
60472;SDS011;46318;52.716;6.444;2022-09-13T14:20:03;2.92;;;0.95;;
60472;SDS011;46318;52.716;6.444;2022-09-13T14:22:40;2.78;;;0.93;;
60472;SDS011;46318;52.716;6.444;2022-09-13T14:27:47;4.07;;;1.00;;
60472;SDS011;46318;52.716;6.444;2022-09-13T14:30:22;2.58;;;0.70;;
60472;SDS011;46318;52.716;6.444;2022-09-13T14:32:56;1.40;;;0.80;;
60472;SDS011;46318;52.716;6.444;2022-09-13T14:35:24;3.53;;;0.70;;
60472;SDS011;46318;52.716;6.444;2022-09-13T14:38:11;4.40;;;1.15;;
60472;SDS011;46318;52.716;6.444;2022-09-13T14:40:48;2.30;;;0.68;;
60472;SDS011;46318;52.716;6.444;2022-09-13T14:43:19;3.13;;;1.00;;
60472;SDS011;46318;52.716;6.444;2022-09-13T14:45:49;2.35;;;0.93;;
60472;SDS011;46318;52.716;6.444;2022-09-13T14:48:26;3.85;;;1.00;;
60472;SDS011;46318;52.716;6.444;2022-09-13T14:53:44;4.22;;;0.88;;
60472;SDS011;46318;52.716;6.444;2022-09-13T14:56:16;4.10;;;1.10;;
60472;SDS011;46318;52.716;6.444;2022-09-13T14:58:58;2.15;;;0.77;;
60472;SDS011;46318;52.716;6.444;2022-09-13T15:01:32;3.55;;;1.13;;
60472;SDS011;46318;52.716;6.444;2022-09-13T15:04:00;2.95;;;0.95;;
60472;SDS011;46318;52.716;6.444;2022-09-13T15:06:32;3.22;;;1.08;;
60472;SDS011;46318;52.716;6.444;2022-09-13T15:11:36;3.65;;;1.20;;
60472;SDS011;46318;52.716;6.444;2022-09-13T15:14:23;4.60;;;1.02;;
60472;SDS011;46318;52.716;6.444;2022-09-13T15:19:47;3.50;;;1.13;;
60472;SDS011;46318;52.716;6.444;2022-09-13T15:24:57;4.75;;;1.10;;
60472;SDS011;46318;52.716;6.444;2022-09-13T15:27:28;3.80;;;0.90;;
60472;SDS011;46318;52.716;6.444;2022-09-13T15:30:28;5.55;;;1.30;;
60472;SDS011;46318;52.716;6.444;2022-09-13T15:33:03;5.65;;;1.27;;
60472;SDS011;46318;52.716;6.444;2022-09-13T15:35:41;3.08;;;0.95;;
60472;SDS011;46318;52.716;6.444;2022-09-13T15:43:38;5.50;;;0.90;;
60472;SDS011;46318;52.716;6.444;2022-09-13T15:46:04;4.97;;;1.13;;
60472;SDS011;46318;52.716;6.444;2022-09-13T15:48:31;6.95;;;1.40;;
60472;SDS011;46318;52.716;6.444;2022-09-13T15:51:06;4.57;;;1.20;;
60472;SDS011;46318;52.716;6.444;2022-09-13T15:53:38;5.22;;;1.17;;
60472;SDS011;46318;52.716;6.444;2022-09-13T15:56:07;4.05;;;1.27;;
60472;SDS011;46318;52.716;6.444;2022-09-13T15:58:37;8.00;;;1.40;;
60472;SDS011;46318;52.716;6.444;2022-09-13T16:01:03;4.68;;;1.33;;
60472;SDS011;46318;52.716;6.444;2022-09-13T16:03:29;4.93;;;1.20;;
60472;SDS011;46318;52.716;6.444;2022-09-13T16:05:56;5.50;;;1.10;;
60472;SDS011;46318;52.716;6.444;2022-09-13T16:08:23;6.18;;;1.70;;
60472;SDS011;46318;52.716;6.444;2022-09-13T16:10:49;3.45;;;1.17;;
60472;SDS011;46318;52.716;6.444;2022-09-13T16:13:15;4.50;;;1.33;;
60472;SDS011;46318;52.716;6.444;2022-09-13T16:15:41;4.82;;;1.23;;
60472;SDS011;46318;52.716;6.444;2022-09-13T16:18:07;5.35;;;1.00;;
60472;SDS011;46318;52.716;6.444;2022-09-13T16:20:34;2.78;;;1.00;;
60472;SDS011;46318;52.716;6.444;2022-09-13T16:23:00;8.23;;;1.77;;
60472;SDS011;46318;52.716;6.444;2022-09-13T16:25:26;6.63;;;1.60;;
60472;SDS011;46318;52.716;6.444;2022-09-13T16:27:51;3.75;;;1.23;;
60472;SDS011;46318;52.716;6.444;2022-09-13T16:30:19;3.65;;;1.48;;
60472;SDS011;46318;52.716;6.444;2022-09-13T16:32:46;4.75;;;1.35;;
60472;SDS011;46318;52.716;6.444;2022-09-13T16:35:13;4.28;;;1.15;;
60472;SDS011;46318;52.716;6.444;2022-09-13T16:37:41;6.90;;;1.25;;
60472;SDS011;46318;52.716;6.444;2022-09-13T16:40:07;7.53;;;1.30;;
60472;SDS011;46318;52.716;6.444;2022-09-13T16:42:34;4.65;;;1.30;;
60472;SDS011;46318;52.716;6.444;2022-09-13T16:45:00;4.68;;;1.17;;
60472;SDS011;46318;52.716;6.444;2022-09-13T16:47:26;6.97;;;1.10;;
60472;SDS011;46318;52.716;6.444;2022-09-13T16:49:52;6.75;;;1.25;;
60472;SDS011;46318;52.716;6.444;2022-09-13T16:52:18;5.40;;;1.25;;
60472;SDS011;46318;52.716;6.444;2022-09-13T16:54:44;6.38;;;0.90;;
60472;SDS011;46318;52.716;6.444;2022-09-13T16:57:13;5.80;;;1.40;;
60472;SDS011;46318;52.716;6.444;2022-09-13T16:59:39;4.20;;;1.38;;
60472;SDS011;46318;52.716;6.444;2022-09-13T17:02:06;6.10;;;1.20;;
60472;SDS011;46318;52.716;6.444;2022-09-13T17:04:35;7.65;;;1.55;;
60472;SDS011;46318;52.716;6.444;2022-09-13T17:07:01;4.20;;;1.85;;
60472;SDS011;46318;52.716;6.444;2022-09-13T17:09:29;4.22;;;1.13;;
60472;SDS011;46318;52.716;6.444;2022-09-13T17:11:55;3.78;;;1.02;;
60472;SDS011;46318;52.716;6.444;2022-09-13T17:14:21;4.10;;;1.27;;
60472;SDS011;46318;52.716;6.444;2022-09-13T17:16:48;6.57;;;1.10;;
60472;SDS011;46318;52.716;6.444;2022-09-13T17:19:19;5.20;;;1.33;;
60472;SDS011;46318;52.716;6.444;2022-09-13T17:21:49;3.83;;;1.27;;
60472;SDS011;46318;52.716;6.444;2022-09-13T17:24:16;5.97;;;1.10;;
60472;SDS011;46318;52.716;6.444;2022-09-13T17:26:42;3.88;;;1.20;;
60472;SDS011;46318;52.716;6.444;2022-09-13T17:29:10;4.03;;;1.45;;
60472;SDS011;46318;52.716;6.444;2022-09-13T17:31:37;5.43;;;1.40;;
60472;SDS011;46318;52.716;6.444;2022-09-13T17:34:03;4.43;;;1.40;;
60472;SDS011;46318;52.716;6.444;2022-09-13T17:36:29;4.28;;;1.00;;
60472;SDS011;46318;52.716;6.444;2022-09-13T17:38:55;5.60;;;1.50;;
60472;SDS011;46318;52.716;6.444;2022-09-13T17:41:22;5.45;;;1.33;;
60472;SDS011;46318;52.716;6.444;2022-09-13T17:43:49;5.85;;;1.55;;
60472;SDS011;46318;52.716;6.444;2022-09-13T17:46:23;6.13;;;3.03;;
60472;SDS011;46318;52.716;6.444;2022-09-13T17:48:52;10.05;;;2.10;;
60472;SDS011;46318;52.716;6.444;2022-09-13T17:51:21;4.10;;;1.90;;
60472;SDS011;46318;52.716;6.444;2022-09-13T17:53:54;4.88;;;1.10;;
60472;SDS011;46318;52.716;6.444;2022-09-13T17:59:09;7.88;;;1.50;;
60472;SDS011;46318;52.716;6.444;2022-09-13T18:01:43;6.88;;;1.30;;
60472;SDS011;46318;52.716;6.444;2022-09-13T18:04:11;5.05;;;1.42;;
60472;SDS011;46318;52.716;6.444;2022-09-13T18:06:39;5.35;;;1.38;;
60472;SDS011;46318;52.716;6.444;2022-09-13T18:09:06;3.55;;;1.08;;
60472;SDS011;46318;52.716;6.444;2022-09-13T18:11:34;4.25;;;1.30;;
60472;SDS011;46318;52.716;6.444;2022-09-13T18:14:02;3.97;;;1.27;;
60472;SDS011;46318;52.716;6.444;2022-09-13T18:16:28;5.25;;;1.60;;
60472;SDS011;46318;52.716;6.444;2022-09-13T18:18:55;4.07;;;0.93;;
60472;SDS011;46318;52.716;6.444;2022-09-13T18:21:23;3.33;;;1.17;;
60472;SDS011;46318;52.716;6.444;2022-09-13T18:23:55;5.63;;;1.25;;
60472;SDS011;46318;52.716;6.444;2022-09-13T18:26:23;5.60;;;1.40;;
60472;SDS011;46318;52.716;6.444;2022-09-13T18:28:53;7.22;;;1.40;;
60472;SDS011;46318;52.716;6.444;2022-09-13T18:31:22;4.63;;;1.33;;
60472;SDS011;46318;52.716;6.444;2022-09-13T18:33:52;5.05;;;1.20;;
60472;SDS011;46318;52.716;6.444;2022-09-13T18:36:21;6.70;;;1.70;;
60472;SDS011;46318;52.716;6.444;2022-09-13T18:38:48;4.38;;;1.35;;
60472;SDS011;46318;52.716;6.444;2022-09-13T18:41:15;6.13;;;1.60;;